createdAt,value
2019-06-20T00:00:48.229Z,3.23
2019-06-20T00:03:17.491Z,3.00
2019-06-20T00:05:46.523Z,2.90
2019-06-20T00:08:15.542Z,2.93
2019-06-20T00:10:44.798Z,2.80
2019-06-20T00:13:14.091Z,3.17
2019-06-20T00:15:42.762Z,2.83
2019-06-20T00:18:11.573Z,3.00
2019-06-20T00:20:40.404Z,2.80
2019-06-20T00:23:09.242Z,2.83
2019-06-20T00:25:38.155Z,3.23
2019-06-20T00:28:07.097Z,2.80
2019-06-20T00:30:36.130Z,2.53
2019-06-20T00:33:05.150Z,2.73
2019-06-20T00:35:34.565Z,2.80
2019-06-20T00:38:03.382Z,2.83
2019-06-20T00:40:32.078Z,2.77
2019-06-20T00:43:13.423Z,2.60
2019-06-20T00:45:31.153Z,2.23
2019-06-20T00:47:59.930Z,3.27
2019-06-20T00:50:28.591Z,2.43
2019-06-20T00:52:57.199Z,2.77
2019-06-20T00:55:26.224Z,2.70
2019-06-20T00:57:54.877Z,2.80
2019-06-20T01:00:24.007Z,2.97
2019-06-20T01:02:53.007Z,3.13
2019-06-20T01:05:22.127Z,2.87
2019-06-20T01:07:50.818Z,2.43
2019-06-20T01:10:19.664Z,2.80
2019-06-20T01:12:49.027Z,3.10
2019-06-20T01:15:17.974Z,3.17
2019-06-20T01:17:46.711Z,2.63
2019-06-20T01:20:16.283Z,2.50
2019-06-20T01:22:45.258Z,2.23
2019-06-20T01:25:14.906Z,2.27
2019-06-20T01:27:44.111Z,2.20
2019-06-20T01:30:13.339Z,2.53
2019-06-20T01:32:42.080Z,2.00
2019-06-20T01:35:11.213Z,2.13
2019-06-20T01:37:39.989Z,2.10
2019-06-20T01:40:09.452Z,2.20
2019-06-20T01:42:38.758Z,1.87
2019-06-20T01:45:08.910Z,1.80
2019-06-20T01:47:37.613Z,2.10
2019-06-20T01:50:06.539Z,2.00
2019-06-20T01:52:35.283Z,1.83
2019-06-20T01:55:04.233Z,2.20
2019-06-20T01:57:33.245Z,1.90
2019-06-20T02:00:01.996Z,2.23
2019-06-20T02:02:31.028Z,1.97
2019-06-20T02:04:59.850Z,2.20
2019-06-20T02:07:28.502Z,2.03
2019-06-20T02:09:57.199Z,2.40
2019-06-20T02:12:25.936Z,2.23
2019-06-20T02:14:54.963Z,1.67
2019-06-20T02:17:23.611Z,1.70
2019-06-20T02:19:52.249Z,2.20
2019-06-20T02:22:21.165Z,2.33
2019-06-20T02:24:49.939Z,2.40
2019-06-20T02:27:20.631Z,1.90
2019-06-20T02:29:49.845Z,1.90
2019-06-20T02:32:18.638Z,2.23
2019-06-20T02:34:47.387Z,2.70
2019-06-20T02:37:35.594Z,2.00
2019-06-20T02:40:04.686Z,2.80
2019-06-20T02:42:33.722Z,2.03
2019-06-20T02:45:02.411Z,3.07
2019-06-20T02:47:31.025Z,2.27
2019-06-20T02:49:59.878Z,1.93
2019-06-20T02:52:28.808Z,1.87
2019-06-20T02:54:57.550Z,1.87
2019-06-20T02:57:26.175Z,2.00
2019-06-20T02:59:54.964Z,2.10
2019-06-20T03:02:23.646Z,2.00
2019-06-20T03:04:52.282Z,2.10
2019-06-20T03:07:21.195Z,2.00
2019-06-20T03:09:49.973Z,2.00
2019-06-20T03:12:18.905Z,2.17
2019-06-20T03:14:47.678Z,2.17
2019-06-20T03:17:16.435Z,1.90
2019-06-20T03:19:45.104Z,2.00
2019-06-20T03:22:13.714Z,2.10
2019-06-20T03:24:42.347Z,2.07
2019-06-20T03:27:11.367Z,1.83
2019-06-20T03:29:40.026Z,2.00
2019-06-20T03:32:08.667Z,2.60
2019-06-20T03:34:37.863Z,2.50
2019-06-20T03:37:06.558Z,2.10
2019-06-20T03:39:35.345Z,2.27
2019-06-20T03:42:04.000Z,2.30
2019-06-20T03:44:32.643Z,2.53
2019-06-20T03:47:01.444Z,3.00
2019-06-20T03:49:30.134Z,2.10
2019-06-20T03:51:58.914Z,2.80
2019-06-20T03:54:28.132Z,2.83
2019-06-20T03:56:57.069Z,2.50
2019-06-20T03:59:25.844Z,2.80
2019-06-20T04:01:54.634Z,3.00
2019-06-20T04:04:23.286Z,2.90
2019-06-20T04:06:52.113Z,2.93
2019-06-20T04:09:21.042Z,2.83
2019-06-20T04:11:49.829Z,2.50
2019-06-20T04:14:18.616Z,2.77
2019-06-20T04:16:47.538Z,2.57
2019-06-20T04:19:16.355Z,2.97
2019-06-20T04:21:45.163Z,3.00
2019-06-20T04:24:13.957Z,2.63
2019-06-20T04:26:42.611Z,2.57
2019-06-20T04:29:11.228Z,2.73
2019-06-20T04:31:39.866Z,2.80
2019-06-20T04:34:09.068Z,2.83
2019-06-20T04:36:37.720Z,2.97
2019-06-20T04:39:18.865Z,2.57
2019-06-20T04:41:37.560Z,2.43
2019-06-20T04:44:06.428Z,2.23
2019-06-20T04:46:41.104Z,3.00
2019-06-20T04:49:10.030Z,2.97
2019-06-20T04:51:39.173Z,2.70
2019-06-20T04:54:07.820Z,3.00
2019-06-20T04:56:36.446Z,2.77
2019-06-20T04:59:05.075Z,2.77
2019-06-20T05:01:34.101Z,2.43
2019-06-20T05:04:02.750Z,2.50
2019-06-20T05:06:31.408Z,2.10
2019-06-20T05:09:00.242Z,2.23
2019-06-20T05:11:29.137Z,2.30
2019-06-20T05:13:57.883Z,2.40
2019-06-20T05:16:26.520Z,2.43
2019-06-20T05:18:55.142Z,2.30
2019-06-20T05:21:24.435Z,2.67
2019-06-20T05:23:53.159Z,2.93
2019-06-20T05:26:21.847Z,2.50
2019-06-20T05:28:50.497Z,2.60
2019-06-20T05:31:19.517Z,2.40
2019-06-20T05:33:49.116Z,2.03
2019-06-20T05:36:17.773Z,2.13
2019-06-20T05:38:46.404Z,2.80
2019-06-20T05:41:15.618Z,2.17
2019-06-20T05:43:44.267Z,1.80
2019-06-20T05:46:13.481Z,2.00
2019-06-20T05:48:43.334Z,1.80
2019-06-20T05:51:12.336Z,1.90
2019-06-20T05:53:41.000Z,1.83
2019-06-20T05:56:10.186Z,1.90
2019-06-20T05:58:38.862Z,2.20
2019-06-20T06:01:07.698Z,1.80
2019-06-20T06:03:36.302Z,2.00
2019-06-20T06:06:04.953Z,2.10
2019-06-20T06:08:34.111Z,1.90
2019-06-20T06:11:03.008Z,1.53
2019-06-20T06:13:31.638Z,1.73
2019-06-20T06:16:00.651Z,1.80
2019-06-20T06:18:29.314Z,1.80
2019-06-20T06:20:57.966Z,2.00
2019-06-20T06:23:26.787Z,1.63
2019-06-20T06:25:55.603Z,1.97
2019-06-20T06:28:24.303Z,3.70
2019-06-20T06:30:53.072Z,1.90
2019-06-20T06:33:22.786Z,1.90
2019-06-20T06:35:51.538Z,2.20
2019-06-20T06:38:21.809Z,1.70
2019-06-20T06:40:50.966Z,1.80
2019-06-20T06:43:19.608Z,1.70
2019-06-20T06:45:48.813Z,1.80
2019-06-20T06:48:17.750Z,1.60
2019-06-20T06:50:46.521Z,1.87
2019-06-20T06:53:15.722Z,2.13
2019-06-20T06:55:44.942Z,2.00
2019-06-20T06:58:13.898Z,2.03
2019-06-20T07:00:43.049Z,2.00
2019-06-20T07:03:11.648Z,2.10
2019-06-20T07:05:40.290Z,1.73
2019-06-20T07:08:09.102Z,1.93
2019-06-20T07:10:37.754Z,2.33
2019-06-20T07:13:06.761Z,1.90
2019-06-20T07:15:35.410Z,1.87
2019-06-20T07:18:04.159Z,1.77
2019-06-20T07:20:32.874Z,1.57
2019-06-20T07:23:01.999Z,1.83
2019-06-20T07:25:30.746Z,1.37
2019-06-20T07:27:59.383Z,1.53
2019-06-20T07:30:28.309Z,2.10
2019-06-20T07:32:57.130Z,2.00
2019-06-20T07:35:25.884Z,2.00
2019-06-20T07:37:54.515Z,1.63
2019-06-20T07:40:23.530Z,2.00
2019-06-20T07:42:52.180Z,2.20
2019-06-20T07:45:27.203Z,2.50
2019-06-20T07:47:54.810Z,2.33
2019-06-20T07:50:23.390Z,1.90
2019-06-20T07:53:01.965Z,2.00
2019-06-20T07:55:22.842Z,1.97
2019-06-20T07:57:51.549Z,2.70
2019-06-20T08:00:20.643Z,2.30
2019-06-20T08:02:49.615Z,2.43
2019-06-20T08:05:18.738Z,2.07
2019-06-20T08:07:47.571Z,2.20
2019-06-20T08:10:17.731Z,2.70
2019-06-20T08:12:46.482Z,2.60
2019-06-20T08:15:16.085Z,2.50
2019-06-20T08:17:44.955Z,2.97
2019-06-20T08:20:13.815Z,2.93
2019-06-20T08:22:42.607Z,3.17
2019-06-20T08:25:11.495Z,2.77
2019-06-20T08:27:53.336Z,3.00
2019-06-20T08:30:23.084Z,3.10
2019-06-20T08:32:52.223Z,3.33
2019-06-20T08:35:22.741Z,3.13
2019-06-20T08:37:51.594Z,3.17
2019-06-20T08:40:20.822Z,2.77
2019-06-20T08:42:50.102Z,2.60
2019-06-20T08:45:19.269Z,2.70
2019-06-20T08:47:48.283Z,2.60
2019-06-20T08:50:17.320Z,2.47
2019-06-20T08:52:46.058Z,2.47
2019-06-20T08:55:15.178Z,2.63
2019-06-20T08:57:44.187Z,2.20
2019-06-20T09:00:12.954Z,2.43
2019-06-20T09:02:41.762Z,2.40
2019-06-20T09:05:11.173Z,2.40
2019-06-20T09:07:41.803Z,2.37
2019-06-20T09:10:11.402Z,2.50
2019-06-20T09:12:40.057Z,2.27
2019-06-20T09:15:09.014Z,2.10
2019-06-20T09:17:37.727Z,2.63
2019-06-20T09:20:06.906Z,2.07
2019-06-20T09:22:35.593Z,2.23
2019-06-20T09:25:04.718Z,1.93
2019-06-20T09:27:33.469Z,2.10
2019-06-20T09:30:03.523Z,2.20
2019-06-20T09:32:32.494Z,2.10
2019-06-20T09:35:01.117Z,2.10
2019-06-20T09:37:30.136Z,2.30
2019-06-20T09:39:59.199Z,2.33
2019-06-20T09:42:28.080Z,2.20
2019-06-20T09:44:58.359Z,2.40
2019-06-20T09:47:27.466Z,2.27
2019-06-20T09:49:57.707Z,3.00
2019-06-20T09:52:26.683Z,2.30
2019-06-20T09:54:56.146Z,2.50
2019-06-20T09:57:24.944Z,2.40
2019-06-20T10:00:05.871Z,2.30
2019-06-20T10:02:23.746Z,2.37
2019-06-20T10:04:52.992Z,2.30
2019-06-20T10:07:22.247Z,2.60
2019-06-20T10:09:52.054Z,2.37
2019-06-20T10:12:21.462Z,2.37
2019-06-20T10:14:51.512Z,2.17
2019-06-20T10:17:20.523Z,2.30
2019-06-20T10:19:49.876Z,2.40
2019-06-20T10:22:19.158Z,2.33
2019-06-20T10:24:49.105Z,2.77
2019-06-20T10:27:18.042Z,2.57
2019-06-20T10:29:47.566Z,2.43
2019-06-20T10:32:17.259Z,2.50
2019-06-20T10:34:46.694Z,2.67
2019-06-20T10:37:15.698Z,2.50
2019-06-20T10:39:45.845Z,2.63
2019-06-20T10:42:15.030Z,2.03
2019-06-20T10:44:45.698Z,2.20
2019-06-20T10:47:14.948Z,2.00
2019-06-20T10:49:44.702Z,2.20
2019-06-20T10:52:14.008Z,1.97
2019-06-20T10:54:43.307Z,2.20
2019-06-20T10:57:12.843Z,2.30
2019-06-20T10:59:42.744Z,2.10
2019-06-20T11:02:12.074Z,2.17
2019-06-20T11:04:42.303Z,1.90
2019-06-20T11:07:11.560Z,2.10
2019-06-20T11:09:41.253Z,2.60
2019-06-20T11:12:10.002Z,2.17
2019-06-20T11:14:40.308Z,2.20
2019-06-20T11:17:09.238Z,2.13
2019-06-20T11:19:38.579Z,2.33
2019-06-20T11:22:08.938Z,2.37
2019-06-20T11:24:39.191Z,2.50
2019-06-20T11:27:07.895Z,2.20
2019-06-20T11:29:36.851Z,2.23
2019-06-20T11:32:06.739Z,2.10
2019-06-20T11:34:37.674Z,2.27
2019-06-20T11:37:06.202Z,1.93
2019-06-20T11:39:36.232Z,2.20
2019-06-20T11:42:05.426Z,1.93
2019-06-20T11:44:35.411Z,2.23
2019-06-20T11:47:05.029Z,2.10
2019-06-20T11:49:34.765Z,2.10
2019-06-20T11:52:04.269Z,2.47
2019-06-20T11:54:34.321Z,2.20
2019-06-20T11:57:03.705Z,1.97
2019-06-20T11:59:32.360Z,3.30
2019-06-20T12:02:01.187Z,2.33
2019-06-20T12:04:29.828Z,2.23
2019-06-20T12:06:58.471Z,2.47
2019-06-20T12:09:27.109Z,2.03
2019-06-20T12:11:56.015Z,2.70
2019-06-20T12:14:24.760Z,2.80
2019-06-20T12:16:53.421Z,2.43
2019-06-20T12:19:22.038Z,3.10
2019-06-20T12:21:51.147Z,2.30
2019-06-20T12:24:19.982Z,2.70
2019-06-20T12:26:49.018Z,2.90
2019-06-20T12:29:17.745Z,2.70
2019-06-20T12:31:48.368Z,2.33
2019-06-20T12:34:17.767Z,2.60
2019-06-20T12:36:46.697Z,2.43
2019-06-20T12:39:15.831Z,2.60
2019-06-20T12:41:45.591Z,2.47
2019-06-20T12:44:14.773Z,2.40
2019-06-20T12:46:44.784Z,2.40
2019-06-20T12:49:13.836Z,2.17
2019-06-20T12:51:44.592Z,2.23
2019-06-20T12:54:13.847Z,2.77
2019-06-20T12:56:44.007Z,2.07
2019-06-20T12:59:12.999Z,2.33
2019-06-20T13:01:44.872Z,2.20
2019-06-20T13:04:12.805Z,2.43
2019-06-20T13:06:42.242Z,1.77
2019-06-20T13:09:11.090Z,2.53
2019-06-20T13:11:40.745Z,2.27
2019-06-20T13:14:09.809Z,2.07
2019-06-20T13:16:39.067Z,1.63
2019-06-20T13:19:08.554Z,2.07
2019-06-20T13:21:38.778Z,1.80
2019-06-20T13:24:08.199Z,1.80
2019-06-20T13:26:37.412Z,1.80
2019-06-20T13:29:06.311Z,1.90
2019-06-20T13:31:49.933Z,1.80
2019-06-20T13:34:06.155Z,2.10
2019-06-20T13:36:35.046Z,2.03
2019-06-20T13:39:05.110Z,2.03
2019-06-20T13:41:34.989Z,1.60
2019-06-20T13:44:04.162Z,1.63
2019-06-20T13:46:33.190Z,1.80
2019-06-20T13:49:01.847Z,1.83
2019-06-20T13:51:30.502Z,1.57
2019-06-20T13:54:01.818Z,2.13
2019-06-20T13:56:30.304Z,2.10
2019-06-20T13:58:59.459Z,1.90
2019-06-20T14:01:28.262Z,1.80
2019-06-20T14:03:57.054Z,2.10
2019-06-20T14:06:25.836Z,1.80
2019-06-20T14:08:54.750Z,1.70
2019-06-20T14:11:23.835Z,1.70
2019-06-20T14:13:54.094Z,1.90
2019-06-20T14:16:23.474Z,1.80
2019-06-20T14:18:52.792Z,1.90
2019-06-20T14:21:25.710Z,1.80
2019-06-20T14:23:56.622Z,1.90
2019-06-20T14:26:25.762Z,2.10
2019-06-20T14:28:55.761Z,2.00
2019-06-20T14:31:25.951Z,1.03
2019-06-20T14:33:55.605Z,1.50
2019-06-20T14:36:25.304Z,1.20
2019-06-20T14:38:55.119Z,1.67
2019-06-20T14:41:24.115Z,1.47
2019-06-20T14:43:54.344Z,1.33
2019-06-20T14:46:23.586Z,1.67
2019-06-20T14:48:54.191Z,1.20
2019-06-20T14:51:23.643Z,1.50
2019-06-20T14:53:54.450Z,1.50
2019-06-20T14:56:24.578Z,1.90
2019-06-20T14:58:53.812Z,1.60
2019-06-20T15:01:26.112Z,1.60
2019-06-20T15:03:56.072Z,2.77
2019-06-20T15:06:25.994Z,2.17
2019-06-20T15:09:03.277Z,1.73
2019-06-20T15:11:27.235Z,1.67
2019-06-20T15:13:56.570Z,1.83
2019-06-20T15:16:26.598Z,1.90
2019-06-20T15:18:57.138Z,2.10
2019-06-20T15:21:26.564Z,1.90
2019-06-20T15:23:56.688Z,2.37
2019-06-20T15:26:26.040Z,2.00
2019-06-20T15:28:55.579Z,1.67
2019-06-20T15:31:25.361Z,2.07
2019-06-20T15:33:55.121Z,2.30
2019-06-20T15:36:24.410Z,2.07
2019-06-20T15:38:53.428Z,1.40
2019-06-20T15:41:22.251Z,1.73
2019-06-20T15:43:51.755Z,2.00
2019-06-20T15:46:21.809Z,2.20
2019-06-20T15:48:50.871Z,1.80
2019-06-20T15:51:19.977Z,2.03
2019-06-20T15:53:49.313Z,2.00
2019-06-20T15:56:18.253Z,1.77
2019-06-20T15:58:47.028Z,2.00
2019-06-20T16:01:15.821Z,1.80
2019-06-20T16:03:45.282Z,1.60
2019-06-20T16:06:14.440Z,1.90
2019-06-20T16:08:44.155Z,1.70
2019-06-20T16:11:13.073Z,1.50
2019-06-20T16:13:42.104Z,1.60
2019-06-20T16:16:11.447Z,1.93
2019-06-20T16:18:40.759Z,1.90
2019-06-20T16:21:09.998Z,1.87
2019-06-20T16:23:38.738Z,1.43
2019-06-20T16:26:07.828Z,1.70
2019-06-20T16:28:36.923Z,1.20
2019-06-20T16:31:13.262Z,1.80
2019-06-20T16:33:36.718Z,1.67
2019-06-20T16:36:05.642Z,1.60
2019-06-20T16:38:34.570Z,1.70
2019-06-20T16:41:03.607Z,1.77
2019-06-20T16:43:32.029Z,1.70
2019-06-20T16:46:01.258Z,1.53
2019-06-20T16:48:29.910Z,2.17
2019-06-20T16:50:58.613Z,1.50
2019-06-20T16:53:27.397Z,1.93
2019-06-20T16:55:56.400Z,2.03
2019-06-20T16:58:25.430Z,1.83
2019-06-20T17:00:54.108Z,2.00
2019-06-20T17:03:22.914Z,1.70
2019-06-20T17:05:51.773Z,1.73
2019-06-20T17:08:20.567Z,1.73
2019-06-20T17:10:49.493Z,1.97
2019-06-20T17:13:18.308Z,1.70
2019-06-20T17:15:47.127Z,1.47
2019-06-20T17:18:30.233Z,1.80
2019-06-20T17:20:49.050Z,1.60
2019-06-20T17:23:18.439Z,1.50
2019-06-20T17:25:47.808Z,1.53
2019-06-20T17:28:16.610Z,1.40
2019-06-20T17:30:45.831Z,1.70
2019-06-20T17:33:15.447Z,1.70
2019-06-20T17:35:44.297Z,1.60
2019-06-20T17:38:13.262Z,1.80
2019-06-20T17:40:42.584Z,1.87
2019-06-20T17:43:11.357Z,1.50
2019-06-20T17:45:40.136Z,2.00
2019-06-20T17:48:09.197Z,1.23
2019-06-20T17:50:38.177Z,1.27
2019-06-20T17:53:07.421Z,1.30
2019-06-20T17:55:36.452Z,1.57
2019-06-20T17:58:05.094Z,1.60
2019-06-20T18:00:34.066Z,1.57
2019-06-20T18:03:02.779Z,1.50
2019-06-20T18:05:31.613Z,1.43
2019-06-20T18:08:14.193Z,1.47
2019-06-20T18:10:31.111Z,1.77
2019-06-20T18:13:00.247Z,1.00
2019-06-20T18:15:29.232Z,1.40
2019-06-20T18:17:58.318Z,1.30
2019-06-20T18:20:27.285Z,1.50
2019-06-20T18:22:56.749Z,1.40
2019-06-20T18:25:25.403Z,1.17
2019-06-20T18:27:54.322Z,1.40
2019-06-20T18:30:27.207Z,1.30
2019-06-20T18:32:55.830Z,1.37
2019-06-20T18:35:24.651Z,0.90
2019-06-20T18:37:53.324Z,1.30
2019-06-20T18:40:22.159Z,1.23
2019-06-20T18:42:50.785Z,1.30
2019-06-20T18:45:19.734Z,1.20
2019-06-20T18:47:48.503Z,1.40
2019-06-20T18:50:17.266Z,1.30
2019-06-20T18:52:52.341Z,0.90
2019-06-20T18:55:17.032Z,1.40
2019-06-20T18:57:46.114Z,1.57
2019-06-20T19:00:14.847Z,1.93
2019-06-20T19:02:43.605Z,1.70
2019-06-20T19:05:12.534Z,1.23
2019-06-20T19:07:41.259Z,1.47
2019-06-20T19:10:10.435Z,1.47
2019-06-20T19:12:39.413Z,1.00
2019-06-20T19:15:08.648Z,1.30
2019-06-20T19:17:37.457Z,1.40
2019-06-20T19:20:06.415Z,1.40
2019-06-20T19:22:35.674Z,1.70
2019-06-20T19:25:04.652Z,1.60
2019-06-20T19:27:45.459Z,1.17
2019-06-20T19:30:04.018Z,1.37
2019-06-20T19:32:32.747Z,1.20
2019-06-20T19:35:02.793Z,1.20
2019-06-20T19:37:31.789Z,1.10
2019-06-20T19:40:00.992Z,1.03
2019-06-20T19:42:29.646Z,1.40
2019-06-20T19:44:58.275Z,1.30
2019-06-20T19:47:29.608Z,1.50
2019-06-20T19:49:58.329Z,1.13
2019-06-20T19:52:27.235Z,1.60
2019-06-20T19:54:56.546Z,1.60
2019-06-20T19:57:25.186Z,1.60
2019-06-20T19:59:53.819Z,1.53
2019-06-20T20:02:23.045Z,1.57
2019-06-20T20:04:51.694Z,1.50
2019-06-20T20:07:20.707Z,1.40
2019-06-20T20:09:49.358Z,1.60
2019-06-20T20:12:17.990Z,1.50
2019-06-20T20:14:46.631Z,1.60
2019-06-20T20:17:15.552Z,1.57
2019-06-20T20:19:44.595Z,1.57
2019-06-20T20:22:13.611Z,1.10
2019-06-20T20:24:42.422Z,1.37
2019-06-20T20:27:11.221Z,1.10
2019-06-20T20:29:40.308Z,1.27
2019-06-20T20:32:09.630Z,1.40
2019-06-20T20:34:38.295Z,1.10
2019-06-20T20:37:07.290Z,1.20
2019-06-20T20:39:36.225Z,1.00
2019-06-20T20:42:05.364Z,1.57
2019-06-20T20:44:33.995Z,1.00
2019-06-20T20:47:02.653Z,1.17
2019-06-20T20:49:31.656Z,1.10
2019-06-20T20:52:00.308Z,1.13
2019-06-20T20:54:28.945Z,1.37
2019-06-20T20:56:57.634Z,1.13
2019-06-20T20:59:26.418Z,0.97
2019-06-20T21:01:55.057Z,1.50
2019-06-20T21:04:23.966Z,1.27
2019-06-20T21:06:52.713Z,1.30
2019-06-20T21:09:21.923Z,1.50
2019-06-20T21:11:51.049Z,1.10
2019-06-20T21:14:19.795Z,1.63
2019-06-20T21:16:48.612Z,1.40
2019-06-20T21:19:17.651Z,1.30
2019-06-20T21:21:46.310Z,1.40
2019-06-20T21:24:14.921Z,1.50
2019-06-20T21:26:49.621Z,1.23
2019-06-20T21:29:14.751Z,1.20
2019-06-20T21:31:43.782Z,1.40
2019-06-20T21:34:12.432Z,1.50
2019-06-20T21:36:41.069Z,1.10
2019-06-20T21:39:09.698Z,1.60
2019-06-20T21:41:38.914Z,1.40
2019-06-20T21:44:07.841Z,1.77
2019-06-20T21:46:36.979Z,2.70
2019-06-20T21:49:05.628Z,1.60
2019-06-20T21:51:34.653Z,1.40
2019-06-20T21:54:03.344Z,1.27
2019-06-20T21:56:32.130Z,1.10
2019-06-20T21:59:01.333Z,1.60
2019-06-20T22:01:30.753Z,1.10
2019-06-20T22:03:59.409Z,1.03
2019-06-20T22:06:28.043Z,1.50
2019-06-20T22:08:57.254Z,1.30
2019-06-20T22:11:25.923Z,1.00
2019-06-20T22:13:54.953Z,1.13
2019-06-20T22:16:23.864Z,1.40
2019-06-20T22:18:52.982Z,1.03
2019-06-20T22:21:21.654Z,1.23
2019-06-20T22:23:50.316Z,1.30
2019-06-20T22:26:19.109Z,1.60
2019-06-20T22:28:48.309Z,1.40
2019-06-20T22:31:17.032Z,1.07
2019-06-20T22:33:45.822Z,1.20
2019-06-20T22:36:15.204Z,0.97
2019-06-20T22:38:43.869Z,1.60
2019-06-20T22:41:12.873Z,1.20
2019-06-20T22:43:41.514Z,1.40
2019-06-20T22:46:10.154Z,1.17
2019-06-20T22:48:39.169Z,1.37
2019-06-20T22:51:08.098Z,1.00
2019-06-20T22:53:36.842Z,1.57
2019-06-20T22:56:05.490Z,1.23
2019-06-20T22:58:34.139Z,1.47
2019-06-20T23:01:03.045Z,1.00
2019-06-20T23:03:31.810Z,1.37
2019-06-20T23:06:00.626Z,1.20
2019-06-20T23:08:29.360Z,1.53
2019-06-20T23:10:58.102Z,1.50
2019-06-20T23:13:26.735Z,1.07
2019-06-20T23:15:55.566Z,1.20
2019-06-20T23:18:24.770Z,1.60
2019-06-20T23:21:03.984Z,1.23
2019-06-20T23:23:23.827Z,1.00
2019-06-20T23:25:54.230Z,1.37
2019-06-20T23:28:22.878Z,1.10
2019-06-20T23:30:51.519Z,1.30
2019-06-20T23:33:20.716Z,1.07
2019-06-20T23:35:49.751Z,1.30
2019-06-20T23:38:18.680Z,1.33
2019-06-20T23:40:47.438Z,0.97
2019-06-20T23:43:16.066Z,1.30
2019-06-20T23:45:44.686Z,1.13
2019-06-20T23:48:13.911Z,0.93
2019-06-20T23:50:42.714Z,1.23
2019-06-20T23:53:22.272Z,1.00
2019-06-20T23:55:51.043Z,1.00
2019-06-20T23:58:19.960Z,0.97
